createdAt,value
2019-02-02T07:13:50.291Z,60.37
2019-02-02T07:16:19.460Z,52.20
2019-02-02T07:18:48.796Z,51.43
2019-02-02T07:21:18.018Z,47.93
2019-02-02T07:23:47.520Z,46.13
2019-02-02T07:26:16.693Z,49.33
2019-02-02T07:28:45.856Z,46.93
2019-02-02T07:31:15.159Z,47.03
2019-02-02T07:33:44.369Z,45.27
2019-02-02T07:36:13.615Z,46.37
2019-02-02T07:38:42.767Z,49.23
2019-02-02T07:41:12.567Z,95.07
2019-02-02T07:43:41.944Z,63.00
2019-02-02T07:46:15.086Z,52.43
2019-02-02T07:48:42.104Z,50.57
2019-02-02T07:51:11.377Z,50.23
2019-02-02T07:53:40.583Z,45.87
2019-02-02T07:56:09.766Z,49.07
2019-02-02T07:58:39.116Z,46.30
2019-02-02T08:01:08.802Z,48.97
2019-02-02T08:03:38.367Z,47.83
2019-02-02T08:06:07.618Z,44.50
2019-02-02T08:08:37.030Z,46.63
2019-02-02T08:11:06.786Z,46.30
2019-02-02T08:13:35.939Z,45.60
2019-02-02T08:16:05.576Z,46.00
2019-02-02T08:18:34.753Z,47.00
2019-02-02T08:21:04.024Z,52.53
2019-02-02T08:23:33.554Z,51.03
2019-02-02T08:26:03.148Z,46.40
2019-02-02T08:28:32.536Z,43.13
2019-02-02T08:31:02.062Z,45.47
2019-02-02T08:33:31.331Z,45.03
2019-02-02T08:36:00.569Z,47.57
2019-02-02T08:38:29.811Z,39.80
2019-02-02T08:41:00.457Z,40.63
2019-02-02T08:43:29.629Z,43.27
2019-02-02T08:45:58.851Z,43.13
2019-02-02T08:48:28.093Z,39.80
2019-02-02T08:50:57.340Z,40.50
2019-02-02T08:53:26.558Z,39.93
2019-02-02T08:55:55.917Z,44.27
2019-02-02T08:58:25.264Z,41.73
2019-02-02T09:01:03.747Z,43.03
2019-02-02T09:03:25.722Z,45.38
2019-02-02T09:05:55.215Z,43.97
2019-02-02T09:08:24.780Z,38.10
2019-02-02T09:10:53.952Z,38.87
2019-02-02T09:13:23.163Z,38.97
2019-02-02T09:15:52.321Z,41.43
2019-02-02T09:18:21.496Z,37.63
2019-02-02T09:20:50.785Z,38.07
2019-02-02T09:23:20.066Z,41.67
2019-02-02T09:25:51.040Z,35.83
2019-02-02T09:28:20.317Z,38.63
2019-02-02T09:30:49.502Z,33.67
2019-02-02T09:33:18.776Z,39.83
2019-02-02T09:35:49.122Z,36.60
2019-02-02T09:38:21.043Z,37.10
2019-02-02T09:40:50.310Z,36.83
2019-02-02T09:43:19.561Z,34.10
2019-02-02T09:45:48.772Z,34.70
2019-02-02T09:48:18.007Z,33.57
2019-02-02T09:50:47.595Z,35.77
2019-02-02T09:53:16.775Z,37.87
2019-02-02T09:55:45.951Z,35.57
2019-02-02T09:58:15.183Z,34.87
2019-02-02T10:00:44.751Z,33.90
2019-02-02T10:03:13.981Z,31.20
2019-02-02T10:05:43.173Z,31.23
2019-02-02T10:08:12.520Z,32.40
2019-02-02T10:10:41.851Z,32.40
2019-02-02T10:13:11.030Z,32.40
2019-02-02T10:15:40.217Z,33.10
2019-02-02T10:18:09.472Z,30.33
2019-02-02T10:20:38.627Z,27.50
2019-02-02T10:23:07.822Z,28.57
2019-02-02T10:25:37.319Z,24.10
2019-02-02T10:28:07.170Z,26.20
2019-02-02T10:30:44.567Z,24.13
2019-02-02T10:33:15.596Z,23.97
2019-02-02T10:35:44.763Z,24.33
2019-02-02T10:38:14.154Z,24.03
2019-02-02T10:40:43.528Z,20.53
2019-02-02T10:43:12.780Z,23.40
2019-02-02T10:45:42.052Z,18.47
2019-02-02T10:48:11.347Z,17.97
2019-02-02T10:50:40.651Z,17.80
2019-02-02T10:53:09.916Z,15.60
2019-02-02T10:55:39.147Z,16.97
2019-02-02T10:58:08.803Z,15.37
2019-02-02T11:00:40.118Z,17.20
2019-02-02T11:03:10.018Z,16.37
2019-02-02T11:05:39.838Z,11.23
2019-02-02T11:08:09.413Z,12.60
2019-02-02T11:10:38.893Z,15.30
2019-02-02T11:13:09.384Z,9.80
2019-02-02T11:15:38.860Z,10.87
2019-02-02T11:18:08.626Z,12.90
2019-02-02T11:20:38.423Z,10.07
2019-02-02T11:23:08.033Z,9.10
2019-02-02T11:25:37.998Z,11.07
2019-02-02T11:28:07.404Z,8.63
2019-02-02T11:30:37.746Z,11.73
2019-02-02T11:33:07.631Z,11.13
2019-02-02T11:35:36.912Z,10.47
2019-02-02T11:38:06.235Z,9.23
2019-02-02T11:40:35.973Z,9.43
2019-02-02T11:43:06.366Z,8.50
2019-02-02T11:45:35.813Z,11.10
2019-02-02T11:48:05.604Z,9.77
2019-02-02T11:50:34.789Z,8.57
2019-02-02T11:53:04.167Z,8.70
2019-02-02T11:55:33.542Z,10.13
2019-02-02T11:58:02.949Z,8.63
2019-02-02T12:00:37.631Z,7.93
2019-02-02T12:03:06.908Z,10.10
2019-02-02T12:05:36.135Z,9.90
2019-02-02T12:08:06.059Z,10.57
2019-02-02T12:10:35.469Z,9.03
2019-02-02T12:13:04.915Z,10.57
2019-02-02T12:15:34.248Z,12.60
2019-02-02T12:18:04.684Z,10.73
2019-02-02T12:20:33.972Z,12.23
2019-02-02T12:23:03.279Z,13.20
2019-02-02T12:25:32.620Z,11.50
2019-02-02T12:28:01.793Z,8.77
2019-02-02T12:30:33.242Z,8.93
2019-02-02T12:33:03.292Z,10.50
2019-02-02T12:35:33.169Z,9.90
2019-02-02T12:38:02.465Z,8.83
2019-02-02T12:40:31.786Z,7.17
2019-02-02T12:43:01.044Z,7.73
2019-02-02T12:45:33.636Z,10.40
2019-02-02T12:48:02.952Z,11.33
2019-02-02T12:50:32.143Z,10.13
2019-02-02T12:53:01.763Z,9.43
2019-02-02T12:55:31.012Z,8.40
2019-02-02T12:58:00.245Z,7.97
2019-02-02T13:00:29.413Z,9.93
2019-02-02T13:02:58.674Z,10.67
2019-02-02T13:05:28.025Z,17.73
2019-02-02T13:07:57.616Z,11.63
2019-02-02T13:10:27.652Z,10.20
2019-02-02T13:12:57.729Z,8.47
2019-02-02T13:15:26.964Z,8.83
2019-02-02T13:17:56.413Z,12.90
2019-02-02T13:20:25.579Z,8.90
2019-02-02T13:22:55.045Z,8.03
2019-02-02T13:25:24.399Z,7.63
2019-02-02T13:27:53.674Z,5.53
2019-02-02T13:30:32.371Z,6.47
2019-02-02T13:33:01.610Z,10.60
2019-02-02T13:35:32.595Z,13.63
2019-02-02T13:38:01.787Z,11.07
2019-02-02T13:40:31.019Z,8.33
2019-02-02T13:43:00.219Z,8.20
2019-02-02T13:45:29.537Z,11.23
2019-02-02T13:47:59.019Z,10.20
2019-02-02T13:50:28.370Z,7.43
2019-02-02T13:52:57.608Z,9.23
2019-02-02T13:55:26.804Z,10.60
2019-02-02T13:57:56.004Z,9.33
2019-02-02T14:00:28.120Z,8.80
2019-02-02T14:03:02.755Z,9.07
2019-02-02T14:05:28.276Z,6.37
2019-02-02T14:08:00.098Z,7.07
2019-02-02T14:10:30.142Z,8.30
2019-02-02T14:12:59.338Z,8.57
2019-02-02T14:15:28.601Z,6.43
2019-02-02T14:17:57.847Z,7.10
2019-02-02T14:20:27.298Z,5.90
2019-02-02T14:22:56.544Z,5.97
2019-02-02T14:25:25.840Z,9.90
2019-02-02T14:27:55.043Z,8.67
2019-02-02T14:30:26.364Z,8.20
2019-02-02T14:32:55.548Z,7.23
2019-02-02T14:35:26.504Z,11.03
2019-02-02T14:37:56.021Z,8.20
2019-02-02T14:40:25.330Z,8.07
2019-02-02T14:42:54.525Z,9.73
2019-02-02T14:45:27.379Z,9.20
2019-02-02T14:47:55.999Z,11.63
2019-02-02T14:50:25.796Z,9.53
2019-02-02T14:52:54.985Z,13.63
2019-02-02T14:55:26.608Z,12.53
2019-02-02T14:57:56.408Z,12.63
2019-02-02T15:00:27.840Z,12.20
2019-02-02T15:02:57.121Z,12.30
2019-02-02T15:05:27.067Z,11.23
2019-02-02T15:07:56.345Z,11.70
2019-02-02T15:10:26.168Z,9.13
2019-02-02T15:12:55.375Z,11.07
2019-02-02T15:15:24.710Z,12.30
2019-02-02T15:17:53.972Z,18.70
2019-02-02T15:20:28.980Z,18.17
2019-02-02T15:22:58.166Z,19.80
2019-02-02T15:25:28.120Z,18.83
2019-02-02T15:27:57.417Z,21.00
2019-02-02T15:30:27.751Z,17.57
2019-02-02T15:32:57.320Z,19.07
2019-02-02T15:35:26.526Z,19.07
2019-02-02T15:37:55.750Z,18.37
2019-02-02T15:40:25.023Z,18.37
2019-02-02T15:42:54.791Z,16.10
2019-02-02T15:45:25.253Z,12.77
2019-02-02T15:47:54.460Z,11.80
2019-02-02T15:50:23.995Z,13.57
2019-02-02T15:52:53.595Z,11.43
2019-02-02T15:55:23.886Z,12.87
2019-02-02T15:57:53.175Z,13.43
2019-02-02T16:00:27.545Z,15.33
2019-02-02T16:02:56.865Z,13.57
2019-02-02T16:05:26.567Z,15.00
2019-02-02T16:07:56.772Z,15.57
2019-02-02T16:10:27.749Z,14.30
2019-02-02T16:12:57.130Z,15.93
2019-02-02T16:15:26.409Z,16.53
2019-02-02T16:17:55.671Z,18.57
2019-02-02T16:20:27.800Z,16.67
2019-02-02T16:22:57.728Z,18.60
2019-02-02T16:25:27.023Z,14.93
2019-02-02T16:27:56.252Z,15.27
2019-02-02T16:30:27.104Z,33.97
2019-02-02T16:32:57.046Z,27.17
2019-02-02T16:35:26.236Z,21.13
2019-02-02T16:37:56.599Z,20.43
2019-02-02T16:40:28.894Z,20.13
2019-02-02T16:42:58.147Z,18.17
2019-02-02T16:45:29.431Z,19.17
2019-02-02T16:47:58.712Z,20.00
2019-02-02T16:50:28.829Z,16.60
2019-02-02T16:52:58.173Z,16.90
2019-02-02T16:55:27.388Z,17.67
2019-02-02T16:57:56.756Z,18.17
2019-02-02T17:00:28.758Z,18.73
2019-02-02T17:02:57.997Z,21.90
2019-02-02T17:05:27.303Z,22.37
2019-02-02T17:07:56.632Z,32.50
2019-02-02T17:10:28.253Z,57.03
2019-02-02T17:12:57.855Z,40.03
2019-02-02T17:15:27.060Z,33.77
2019-02-02T17:17:56.360Z,31.30
2019-02-02T17:20:28.750Z,25.03
2019-02-02T17:22:59.080Z,25.03
2019-02-02T17:25:28.360Z,24.83
2019-02-02T17:27:57.869Z,26.87
2019-02-02T17:30:27.527Z,28.33
2019-02-02T17:32:58.572Z,27.03
2019-02-02T17:35:27.784Z,27.43
2019-02-02T17:37:57.137Z,23.63
2019-02-02T17:40:28.168Z,24.33
2019-02-02T17:42:57.626Z,24.43
2019-02-02T17:45:26.981Z,26.03
2019-02-02T17:47:56.368Z,26.00
2019-02-02T17:50:26.615Z,24.47
2019-02-02T17:52:56.239Z,26.93
2019-02-02T17:55:25.557Z,27.57
2019-02-02T17:57:54.840Z,25.60
2019-02-02T18:00:46.222Z,27.23
2019-02-02T18:03:15.511Z,27.10
2019-02-02T18:05:44.734Z,26.87
2019-02-02T18:08:13.922Z,29.60
2019-02-02T18:10:43.105Z,28.13
2019-02-02T18:13:12.439Z,32.17
2019-02-02T18:15:42.294Z,28.63
2019-02-02T18:18:11.660Z,29.80
2019-02-02T18:20:40.855Z,30.93
2019-02-02T18:23:10.053Z,29.67
2019-02-02T18:25:39.667Z,37.53
2019-02-02T18:28:08.991Z,35.93
2019-02-02T18:30:38.532Z,35.03
2019-02-02T18:33:07.837Z,38.07
2019-02-02T18:35:37.124Z,38.27
2019-02-02T18:38:06.460Z,38.57
2019-02-02T18:40:35.704Z,38.77
2019-02-02T18:43:05.179Z,39.10
2019-02-02T18:45:36.224Z,38.70
2019-02-02T18:48:06.404Z,36.93
2019-02-02T18:50:35.635Z,38.40
2019-02-02T18:53:05.189Z,39.80
2019-02-02T18:55:50.302Z,45.40
2019-02-02T18:58:19.708Z,83.57
2019-02-02T19:00:50.149Z,105.23
2019-02-02T19:03:19.477Z,71.47
2019-02-02T19:05:49.007Z,56.27
2019-02-02T19:08:18.320Z,51.43
2019-02-02T19:10:47.517Z,64.03
2019-02-02T19:13:16.780Z,60.80
2019-02-02T19:15:46.311Z,51.73
2019-02-02T19:18:15.656Z,44.33
2019-02-02T19:20:44.913Z,47.23
2019-02-02T19:23:24.733Z,42.80
2019-02-02T19:25:45.358Z,43.77
2019-02-02T19:28:14.694Z,41.77
2019-02-02T19:30:43.966Z,56.00
2019-02-02T19:33:13.396Z,65.70
2019-02-02T19:35:42.625Z,39.97
2019-02-02T19:38:11.923Z,46.03
2019-02-02T19:40:41.218Z,43.63
2019-02-02T19:43:10.545Z,44.33
2019-02-02T19:45:40.079Z,52.33
2019-02-02T19:48:09.357Z,56.83
2019-02-02T19:50:38.567Z,67.30
2019-02-02T19:53:07.804Z,112.93
2019-02-02T19:55:37.277Z,90.60
2019-02-02T19:58:06.457Z,62.30
2019-02-02T20:00:35.673Z,62.70
2019-02-02T20:03:05.829Z,97.33
2019-02-02T20:05:35.563Z,69.23
2019-02-02T20:08:05.390Z,96.67
2019-02-02T20:10:34.757Z,109.33
2019-02-02T20:13:04.946Z,81.83
2019-02-02T20:15:34.465Z,79.27
2019-02-02T20:18:09.847Z,65.27
2019-02-02T20:20:34.592Z,66.37
2019-02-02T20:23:03.822Z,84.17
2019-02-02T20:25:33.046Z,65.87
2019-02-02T20:28:03.345Z,61.00
2019-02-02T20:30:32.932Z,81.30
2019-02-02T20:33:02.191Z,61.90
2019-02-02T20:35:40.351Z,54.00
2019-02-02T20:38:02.372Z,62.40
2019-02-02T20:40:31.644Z,58.73
2019-02-02T20:43:00.813Z,59.20
2019-02-02T20:45:32.809Z,57.13
2019-02-02T20:48:02.068Z,59.93
2019-02-02T20:50:31.380Z,59.17
2019-02-02T20:53:00.776Z,58.07
2019-02-02T20:55:33.070Z,56.97
2019-02-02T20:58:02.716Z,56.33
2019-02-02T21:00:32.366Z,57.43
2019-02-02T21:03:01.850Z,54.17
2019-02-02T21:05:32.026Z,55.67
2019-02-02T21:08:02.022Z,59.07
2019-02-02T21:10:31.346Z,60.80
2019-02-02T21:13:00.570Z,59.80
2019-02-02T21:15:29.762Z,65.80
2019-02-02T21:17:58.960Z,63.70
2019-02-02T21:20:29.142Z,66.40
2019-02-02T21:22:58.619Z,64.80
2019-02-02T21:25:28.254Z,61.13
2019-02-02T21:27:57.723Z,61.00
2019-02-02T21:30:29.734Z,58.60
2019-02-02T21:32:59.130Z,57.43
2019-02-02T21:35:28.476Z,57.63
2019-02-02T21:37:57.755Z,57.83
2019-02-02T21:40:29.593Z,59.07
2019-02-02T21:43:00.186Z,56.80
2019-02-02T21:45:29.920Z,64.30
2019-02-02T21:47:59.452Z,79.05
2019-02-02T21:50:29.157Z,73.73
2019-02-02T21:52:58.519Z,68.90
2019-02-02T21:55:28.800Z,66.17
2019-02-02T21:57:58.019Z,68.90
2019-02-02T22:00:30.468Z,71.50
2019-02-02T22:02:59.798Z,75.97
2019-02-02T22:05:29.051Z,72.63
2019-02-02T22:07:58.826Z,82.03
2019-02-02T22:10:28.408Z,89.13
2019-02-02T22:12:58.457Z,95.33
2019-02-02T22:15:28.003Z,95.30
2019-02-02T22:17:58.619Z,93.20
2019-02-02T22:20:27.959Z,95.00
2019-02-02T22:22:57.302Z,104.23
2019-02-02T22:25:30.704Z,103.50
2019-02-02T22:28:00.449Z,109.13
2019-02-02T22:30:32.072Z,107.17
2019-02-02T22:47:52.685Z,105.23
2019-02-02T22:50:23.622Z,105.53
2019-02-02T22:52:53.637Z,95.90
2019-02-02T22:55:24.801Z,89.73
2019-02-02T22:57:54.744Z,87.57
2019-02-02T23:01:02.548Z,92.50
2019-02-02T23:04:31.192Z,91.70
2019-02-02T23:07:23.939Z,78.90
2019-02-02T23:10:11.949Z,86.13
2019-02-02T23:13:16.999Z,88.53
2019-02-02T23:16:09.436Z,89.40
2019-02-02T23:18:38.624Z,93.30
2019-02-02T23:21:08.170Z,97.00
2019-02-02T23:23:37.448Z,103.03
2019-02-02T23:26:07.294Z,88.60
2019-02-02T23:28:36.566Z,86.23
2019-02-02T23:31:05.812Z,92.83
2019-02-02T23:33:35.400Z,93.77
2019-02-02T23:36:04.996Z,98.60
2019-02-02T23:38:34.221Z,93.27
2019-02-02T23:41:03.566Z,98.67
2019-02-02T23:43:32.763Z,98.43
2019-02-02T23:46:01.949Z,100.07
2019-02-02T23:48:31.892Z,93.17
2019-02-02T23:51:01.066Z,89.10
2019-02-02T23:53:30.554Z,87.70
2019-02-02T23:55:59.774Z,92.43
2019-02-02T23:58:29.304Z,94.03
